Time;durP1;ratioP1;P1;durP2;ratioP2;P2;SDS_P1;SDS_P2;PMS_P1;PMS_P2;Temp;Humidity;BMP_temperature;BMP_pressure;BME280_temperature;BME280_humidity;BME280_pressure;Samples;Min_cycle;Max_cycle;Signal;HPM_P1;HPM_P2
2022/09/02 00:03:52;;;;;;;4.33;2.07;;;;;;;18.99;43.94;98172.72;8313589;28;20233;-78
2022/09/02 00:07:55;;;;;;;5.10;2.20;;;;;;;18.93;44.48;98168.75;8313806;28;20229;-78
2022/09/02 00:11:57;;;;;;;7.10;2.03;;;;;;;18.89;44.86;98167.31;8313713;28;20229;-78
2022/09/02 00:16:03;;;;;;;5.73;2.30;;;;;;;18.83;45.12;98164.31;8313595;28;20240;-78
2022/09/02 00:20:06;;;;;;;3.97;1.80;;;;;;;18.80;45.38;98160.13;8313485;28;20235;-78
2022/09/02 00:24:09;;;;;;;3.07;1.70;;;;;;;18.80;45.06;98157.50;8313614;28;20624;-78
2022/09/02 00:28:13;;;;;;;3.20;1.90;;;;;;;18.72;45.53;98154.59;8317432;28;20232;-78
2022/09/02 00:32:18;;;;;;;4.20;1.80;;;;;;;18.72;45.33;98147.56;8319060;28;20236;-78
2022/09/02 00:36:21;;;;;;;5.57;1.80;;;;;;;18.65;45.51;98151.59;8319279;28;20224;-78
2022/09/02 00:40:24;;;;;;;2.70;1.93;;;;;;;18.58;45.87;98152.16;8318627;28;20233;-77
2022/09/02 00:44:27;;;;;;;4.80;2.07;;;;;;;18.51;46.58;98150.00;8318555;28;20225;-77
2022/09/02 00:48:31;;;;;;;4.57;2.20;;;;;;;18.54;46.96;98152.41;8318603;28;20229;-78
2022/09/02 00:52:38;;;;;;;6.10;2.70;;;;;;;18.48;46.87;98158.09;8318141;28;20233;-78
2022/09/02 00:56:42;;;;;;;4.00;2.20;;;;;;;18.44;46.75;98142.69;8318393;28;20229;-78
2022/09/02 01:00:46;;;;;;;3.77;1.93;;;;;;;18.45;46.88;98144.34;8318466;28;20225;-77
2022/09/02 01:04:55;;;;;;;3.17;2.33;;;;;;;18.42;47.08;98139.34;8317627;28;20535;-77
2022/09/02 01:09:02;;;;;;;3.87;2.07;;;;;;;18.27;47.38;98136.91;8318132;28;20233;-77
2022/09/02 01:13:08;;;;;;;3.20;2.20;;;;;;;18.24;47.55;98136.28;8317982;28;20241;-77
2022/09/02 01:17:11;;;;;;;5.67;2.20;;;;;;;18.23;47.90;98140.69;8317931;28;20236;-78
2022/09/02 01:21:15;;;;;;;3.80;2.10;;;;;;;18.12;47.83;98136.22;8317851;28;20417;-77
2022/09/02 01:25:22;;;;;;;3.20;2.03;;;;;;;18.20;47.19;98134.84;8317874;28;20225;-78
2022/09/02 01:29:27;;;;;;;2.30;1.90;;;;;;;18.09;47.46;98126.00;8317732;28;20224;-77
2022/09/02 01:33:29;;;;;;;3.13;2.10;;;;;;;18.09;47.49;98130.41;8317389;28;20235;-77
2022/09/02 01:37:33;;;;;;;2.83;2.00;;;;;;;18.02;47.51;98124.75;8317144;28;20228;-77
2022/09/02 01:41:37;;;;;;;3.73;2.13;;;;;;;18.00;47.56;98131.06;8317259;28;20430;-77
2022/09/02 01:45:43;;;;;;;6.13;2.43;;;;;;;17.98;47.55;98121.50;8317036;28;20516;-77
2022/09/02 01:49:46;;;;;;;3.67;2.07;;;;;;;17.88;48.13;98128.38;8316848;28;20228;-77
2022/09/02 01:53:49;;;;;;;3.40;2.30;;;;;;;17.86;48.13;98119.78;8316091;28;20237;-77
2022/09/02 01:57:53;;;;;;;4.63;2.40;;;;;;;17.86;48.17;98121.53;8316744;28;20233;-77
2022/09/02 02:01:56;;;;;;;3.70;2.00;;;;;;;17.80;48.03;98120.19;8316403;28;20296;-77
2022/09/02 02:05:59;;;;;;;1.90;1.73;;;;;;;17.68;48.46;98107.97;8316031;28;20247;-77
2022/09/02 02:10:02;;;;;;;4.77;1.87;;;;;;;17.66;47.98;98112.47;8316398;28;20266;-77
2022/09/02 02:14:06;;;;;;;5.37;1.90;;;;;;;17.64;48.08;98107.34;8316350;28;20247;-77
2022/09/02 02:18:10;;;;;;;3.57;1.90;;;;;;;17.65;47.93;98111.66;8316102;28;20225;-77
2022/09/02 02:22:13;;;;;;;3.23;2.00;;;;;;;17.67;48.01;98109.75;8315872;28;20251;-77
2022/09/02 02:26:16;;;;;;;3.23;1.87;;;;;;;17.50;48.64;98105.72;8315823;28;20240;-77
2022/09/02 02:30:20;;;;;;;3.70;1.90;;;;;;;17.54;48.27;98107.16;8315539;28;20235;-77
2022/09/02 02:34:23;;;;;;;4.73;2.17;;;;;;;17.42;48.16;98109.78;8315489;28;20263;-77
2022/09/02 02:38:26;;;;;;;3.07;1.80;;;;;;;17.49;48.30;98111.03;8315412;28;20240;-77
2022/09/02 02:42:29;;;;;;;4.57;1.87;;;;;;;17.41;47.57;98106.34;8315201;28;20553;-76
2022/09/02 02:46:34;;;;;;;5.27;1.90;;;;;;;17.39;48.54;98100.38;8315171;28;20232;-77
2022/09/02 02:50:37;;;;;;;3.43;1.90;;;;;;;17.38;48.40;98109.16;8314364;28;20229;-76
2022/09/02 02:54:41;;;;;;;4.20;2.10;;;;;;;17.38;48.83;98104.78;8314937;28;20232;-77
2022/09/02 02:58:43;;;;;;;2.57;1.90;;;;;;;17.38;48.82;98103.94;8314849;28;20237;-77
2022/09/02 03:02:48;;;;;;;3.37;2.17;;;;;;;17.33;48.94;98099.03;8314628;28;20540;-77
2022/09/02 03:06:51;;;;;;;5.73;2.10;;;;;;;17.29;48.78;98100.19;8314438;28;20243;-78
2022/09/02 03:10:56;;;;;;;6.93;2.47;;;;;;;17.27;49.00;98098.59;8314339;28;20232;-77
2022/09/02 03:15:00;;;;;;;4.33;2.47;;;;;;;17.15;49.24;98098.53;8314348;28;20236;-76
2022/09/02 03:19:05;;;;;;;6.03;2.30;;;;;;;17.15;49.09;98092.44;8313569;28;20259;-77
2022/09/02 03:23:08;;;;;;;4.07;2.10;;;;;;;17.08;49.59;98086.81;8314389;28;20307;-76
2022/09/02 03:27:11;;;;;;;2.87;2.20;;;;;;;17.04;49.72;98087.13;8314581;28;20418;-76
2022/09/02 03:31:16;;;;;;;4.33;2.37;;;;;;;16.93;49.69;98087.88;8314418;28;20236;-76
2022/09/02 03:35:21;;;;;;;2.70;1.97;;;;;;;16.97;49.71;98086.72;8314468;28;20288;-76
2022/09/02 03:39:24;;;;;;;5.53;2.23;;;;;;;16.87;49.81;98088.28;8314454;28;20225;-76
2022/09/02 03:43:27;;;;;;;4.57;1.93;;;;;;;16.90;49.72;98078.44;8313872;28;20229;-77
2022/09/02 03:47:29;;;;;;;4.50;2.20;;;;;;;16.86;50.01;98082.22;8314282;28;20538;-76
2022/09/02 03:51:34;;;;;;;6.27;2.20;;;;;;;16.73;50.12;98082.16;8314028;28;20225;-78
2022/09/02 03:55:38;;;;;;;2.67;2.13;;;;;;;16.71;49.94;98081.44;8313856;28;20424;-77
2022/09/02 03:59:41;;;;;;;3.30;2.27;;;;;;;16.72;49.82;98080.50;8313873;28;20247;-77
2022/09/02 04:03:44;;;;;;;4.83;2.30;;;;;;;16.71;49.95;98076.22;8319695;28;20241;-77
2022/09/02 04:07:51;;;;;;;3.93;2.30;;;;;;;16.71;49.98;98084.06;8319518;28;20232;-76
2022/09/02 04:11:54;;;;;;;4.40;2.30;;;;;;;16.64;50.64;98076.72;8319637;28;20523;-77
2022/09/02 04:15:57;;;;;;;2.70;2.00;;;;;;;16.59;49.77;98080.50;8319445;28;20233;-76
2022/09/02 04:20:04;;;;;;;6.63;2.30;;;;;;;16.56;50.00;98091.16;8319570;28;20519;-76
2022/09/02 04:24:10;;;;;;;4.03;2.13;;;;;;;16.60;49.99;98081.31;8319516;28;20467;-77
2022/09/02 04:28:12;;;;;;;6.53;2.40;;;;;;;16.50;50.08;98088.94;8319115;28;20225;-76
2022/09/02 04:32:15;;;;;;;5.00;2.50;;;;;;;16.54;49.70;98076.50;8318968;28;20231;-77
2022/09/02 04:36:19;;;;;;;3.33;2.37;;;;;;;16.58;49.79;98078.84;8318969;28;20239;-77
2022/09/02 04:40:23;;;;;;;4.70;2.53;;;;;;;16.49;50.08;98078.63;8318700;28;20225;-77
2022/09/02 04:44:26;;;;;;;2.90;2.10;;;;;;;16.37;50.19;98080.25;8318751;28;20240;-77
2022/09/02 04:48:29;;;;;;;6.17;3.00;;;;;;;16.45;50.17;98082.34;8318601;28;20562;-77
2022/09/02 04:52:32;;;;;;;3.20;2.37;;;;;;;16.48;50.22;98082.97;8318510;28;20236;-77
2022/09/02 04:56:37;;;;;;;3.63;2.60;;;;;;;16.45;50.16;98092.81;8318533;28;20229;-77
2022/09/02 05:00:41;;;;;;;4.87;2.37;;;;;;;16.40;50.29;98086.09;8318327;28;20225;-77
2022/09/02 05:04:44;;;;;;;3.60;2.30;;;;;;;16.48;50.36;98092.59;8317737;28;20233;-77
2022/09/02 05:08:47;;;;;;;3.37;2.47;;;;;;;16.47;50.59;98094.41;8318071;28;20549;-77
2022/09/02 05:12:53;;;;;;;5.87;2.37;;;;;;;16.56;50.27;98093.78;8316544;28;20296;-76
2022/09/02 05:16:56;;;;;;;6.13;2.47;;;;;;;16.63;50.20;98096.81;8317824;28;20228;-77
2022/09/02 05:20:59;;;;;;;6.50;2.30;;;;;;;16.76;50.18;98096.84;8317726;28;20237;-77
2022/09/02 05:25:02;;;;;;;4.47;2.30;;;;;;;16.89;49.86;98092.47;8317423;28;20228;-76
2022/09/02 05:29:08;;;;;;;4.90;2.60;;;;;;;17.04;49.84;98094.97;8317315;28;20240;-77
2022/09/02 05:33:11;;;;;;;7.87;2.50;;;;;;;17.24;49.68;98089.19;8317415;28;20237;-76
2022/09/02 05:37:16;;;;;;;8.10;2.10;;;;;;;17.38;48.72;98102.19;8317374;28;20227;-77
2022/09/02 05:41:22;;;;;;;7.27;2.03;;;;;;;17.81;47.32;98094.84;8317156;28;20229;-76
2022/09/02 05:45:26;;;;;;;5.53;2.27;;;;;;;18.07;47.54;98100.84;8316964;28;20295;-76
2022/09/02 05:49:29;;;;;;;15.43;2.27;;;;;;;18.07;46.91;98099.06;8316943;28;20225;-76
2022/09/02 05:53:33;;;;;;;4.37;2.00;;;;;;;18.12;46.44;98103.94;8316672;28;20235;-77
2022/09/02 05:57:36;;;;;;;5.10;2.13;;;;;;;17.93;46.59;98099.22;8316749;28;20220;-76
2022/09/02 06:01:40;;;;;;;8.67;2.27;;;;;;;18.09;46.22;98102.41;8316548;28;20235;-76
2022/09/02 06:05:53;;;;;;;6.77;2.07;;;;;;;18.08;45.76;98095.47;8316383;28;20244;-76
2022/09/02 06:09:57;;;;;;;3.13;1.80;;;;;;;17.75;46.36;98094.31;8316138;28;20243;-78
2022/09/02 06:14:00;;;;;;;7.50;1.90;;;;;;;18.13;46.01;98100.41;8316130;28;20228;-77
2022/09/02 06:18:05;;;;;;;5.23;1.90;;;;;;;18.14;46.23;98105.53;8316398;28;20237;-77
2022/09/02 06:22:08;;;;;;;8.67;2.50;;;;;;;18.17;45.82;98100.03;8316253;28;20224;-77
2022/09/02 06:26:13;;;;;;;5.93;2.20;;;;;;;18.66;45.49;98105.25;8316140;28;20236;-77
2022/09/02 06:30:16;;;;;;;6.37;2.00;;;;;;;19.12;44.66;98097.34;8316097;28;20231;-77
2022/09/02 06:34:22;;;;;;;4.43;2.00;;;;;;;18.86;44.57;98101.94;8315962;28;20233;-77
2022/09/02 06:38:24;;;;;;;5.93;2.23;;;;;;;18.66;45.05;98105.25;8315674;28;20228;-77
2022/09/02 06:42:27;;;;;;;6.97;2.60;;;;;;;18.48;45.58;98104.81;8315417;28;20224;-77
2022/09/02 06:46:32;;;;;;;5.40;2.00;;;;;;;18.80;45.31;98105.03;8315622;28;20234;-77
2022/09/02 06:50:40;;;;;;;5.13;1.90;;;;;;;19.23;44.87;98099.13;8315279;28;20310;-76
2022/09/02 06:54:44;;;;;;;4.47;1.90;;;;;;;18.99;44.63;98103.66;8315238;28;20233;-76
2022/09/02 06:58:47;;;;;;;4.70;1.83;;;;;;;19.04;44.49;98097.09;8315005;28;20423;-76
2022/09/02 07:05:08;;;;;;;4.33;2.00;;;;;;;19.14;44.50;98102.47;8314206;28;20575;-76
2022/09/02 07:07:14;;;;;;;4.23;2.00;;;;;;;18.96;45.23;98099.44;8314742;28;20228;-75
2022/09/02 07:11:18;;;;;;;2.87;1.80;;;;;;;19.22;44.58;98113.19;8314581;28;20234;-76
2022/09/02 07:15:21;;;;;;;3.13;1.90;;;;;;;19.71;43.89;98095.38;8314877;28;20411;-79
2022/09/02 07:19:25;;;;;;;3.57;1.63;;;;;;;19.67;43.03;98100.06;8314462;28;20217;-77
2022/09/02 07:23:29;;;;;;;3.97;1.90;;;;;;;19.61;43.81;98100.53;8314958;28;20233;-78
2022/09/02 07:27:32;;;;;;;3.20;1.70;;;;;;;19.93;43.26;98102.41;8314087;28;20415;-78
2022/09/02 07:31:35;;;;;;;5.30;1.70;;;;;;;20.09;42.68;98092.31;8314036;28;20229;-77
2022/09/02 07:35:38;;;;;;;4.83;1.73;;;;;;;20.20;42.35;98098.50;8316106;28;20229;-77
2022/09/02 07:39:44;;;;;;;5.20;1.97;;;;;;;20.79;41.59;98097.16;8320512;28;20396;-78
2022/09/02 07:43:47;;;;;;;5.33;1.77;;;;;;;20.47;41.94;98090.97;8321009;28;20241;-78
2022/09/02 07:47:53;;;;;;;4.77;1.60;;;;;;;20.92;41.28;98096.97;8320643;28;20425;-77
2022/09/02 07:51:56;;;;;;;2.80;1.70;;;;;;;21.15;41.13;98089.72;8320685;28;20293;-77
2022/09/02 07:56:01;;;;;;;4.03;1.60;;;;;;;20.66;41.05;98089.47;8320441;28;20244;-78
2022/09/02 08:00:04;;;;;;;6.07;1.73;;;;;;;20.80;40.93;98081.25;8320454;28;20235;-77
2022/09/02 08:04:07;;;;;;;3.27;1.40;;;;;;;20.74;40.42;98088.84;8320626;28;20266;-77
2022/09/02 08:08:10;;;;;;;7.23;2.73;;;;;;;20.71;41.74;98082.00;8320615;28;20231;-84
2022/09/02 08:12:14;;;;;;;6.20;2.47;;;;;;;21.52;42.99;98094.50;8320293;28;20231;-83
2022/09/02 08:16:23;;;;;;;7.13;2.83;;;;;;;22.06;42.61;98087.94;8320399;28;20233;-83
2022/09/02 08:20:26;;;;;;;4.80;2.03;;;;;;;22.29;40.47;98088.50;8320246;28;20225;-84
2022/09/02 08:24:30;;;;;;;4.60;1.53;;;;;;;22.10;37.55;98085.84;8319881;28;20225;-84
2022/09/02 08:28:35;;;;;;;3.43;1.40;;;;;;;22.34;36.88;98088.13;8319724;28;20253;-79
2022/09/02 08:32:38;;;;;;;2.63;1.60;;;;;;;22.42;36.28;98085.59;8319809;28;20412;-83
2022/09/02 08:36:42;;;;;;;3.43;1.40;;;;;;;22.20;36.31;98084.03;8319611;28;20236;-83
2022/09/02 08:40:58;;;;;;;2.70;1.40;;;;;;;21.88;36.35;98074.59;8319398;28;20330;-88
2022/09/02 08:45:07;;;;;;;3.77;1.27;;;;;;;22.24;37.36;98078.34;8317981;28;20291;-90
2022/09/02 08:49:16;;;;;;;3.60;1.40;;;;;;;22.73;35.15;98066.94;8317497;28;20247;-82
2022/09/02 08:53:26;;;;;;;6.07;1.43;;;;;;;23.21;34.59;98064.19;8318384;28;20227;-85
2022/09/02 08:57:30;;;;;;;4.40;1.27;;;;;;;23.77;33.35;98061.50;8318837;28;20232;-78
2022/09/02 09:01:43;;;;;;;5.77;1.20;;;;;;;23.17;32.60;98060.19;8318992;28;20419;-81
2022/09/02 09:05:50;;;;;;;4.47;1.17;;;;;;;24.12;32.17;98052.81;8319139;28;20243;-82
2022/09/02 09:10:03;;;;;;;5.70;1.30;;;;;;;24.21;30.66;98061.63;8318124;28;20228;-83
2022/09/02 09:14:12;;;;;;;3.37;1.10;;;;;;;24.56;29.82;98052.84;8318443;28;20232;-80
2022/09/02 09:18:19;;;;;;;2.73;1.20;;;;;;;24.68;30.11;98052.59;8318372;28;20228;-80
2022/09/02 09:22:28;;;;;;;6.93;1.60;;;;;;;23.86;29.40;98055.38;8318057;28;20230;-81
2022/09/02 09:26:33;;;;;;;4.60;1.37;;;;;;;24.11;29.42;98042.38;8318125;28;20236;-81
2022/09/02 09:30:35;;;;;;;1.90;1.07;;;;;;;23.84;28.27;98054.69;8317568;28;20233;-79
2022/09/02 09:35:00;;;;;;;2.10;1.07;;;;;;;24.38;27.47;98033.50;8317125;28;20237;-78
2022/09/02 09:39:17;;;;;;;3.57;1.00;;;;;;;24.02;27.76;98049.41;8316987;28;20233;-80
2022/09/02 09:43:20;;;;;;;2.47;1.00;;;;;;;24.48;27.51;98028.09;8317423;28;20232;-79
2022/09/02 09:47:25;;;;;;;1.63;0.80;;;;;;;24.27;26.41;98031.09;8317350;28;20241;-78
2022/09/02 09:51:29;;;;;;;2.13;0.97;;;;;;;24.08;26.54;98035.56;8316967;28;20474;-80
2022/09/02 09:55:53;;;;;;;3.57;0.90;;;;;;;23.72;27.04;98030.25;8316477;28;20236;-79
2022/09/02 09:59:56;;;;;;;3.60;1.20;;;;;;;24.62;26.28;98021.44;8316278;28;20236;-77
2022/09/02 10:04:03;;;;;;;2.00;0.90;;;;;;;24.47;26.12;98010.56;8316551;28;20511;-81
2022/09/02 10:08:25;;;;;;;1.07;0.93;;;;;;;24.36;26.07;98009.81;8316515;28;20229;-79
2022/09/02 10:12:32;;;;;;;1.97;1.17;;;;;;;23.23;26.31;98008.56;8316374;28;20383;-81
2022/09/02 10:16:43;;;;;;;2.63;1.10;;;;;;;23.43;25.72;98018.03;8316278;28;20420;-84
2022/09/02 10:20:54;;;;;;;1.30;0.83;;;;;;;23.66;25.03;98006.22;8316236;28;20225;-83
2022/09/02 10:25:24;;;;;;;0.93;0.80;;;;;;;25.22;24.27;98002.88;8315677;28;20236;-83
2022/09/02 10:29:41;;;;;;;2.80;1.00;;;;;;;24.67;24.29;97996.16;8316247;28;20228;-84
2022/09/02 10:33:54;;;;;;;2.70;1.10;;;;;;;24.57;24.88;97990.97;8316019;28;20393;-88
2022/09/02 10:38:06;;;;;;;3.10;1.23;;;;;;;24.74;26.36;97991.91;8315078;28;20229;-82
2022/09/02 10:42:21;;;;;;;2.33;1.07;;;;;;;25.45;25.94;97981.09;8315531;28;20232;-81
2022/09/02 10:46:25;;;;;;;4.70;1.17;;;;;;;25.46;24.31;97983.59;8315581;28;20240;-82
2022/09/02 10:50:37;;;;;;;3.37;1.17;;;;;;;24.47;26.31;97984.09;8315284;28;20226;-82
2022/09/02 10:54:49;;;;;;;1.30;1.00;;;;;;;24.97;25.41;97988.69;8315564;28;20228;-86
2022/09/02 10:58:56;;;;;;;1.83;0.90;;;;;;;25.63;24.79;97984.47;8315554;28;20240;-87
2022/09/02 11:03:10;;;;;;;3.40;0.83;;;;;;;26.08;24.51;97966.44;8315681;28;20240;-77
2022/09/02 11:07:17;;;;;;;3.17;1.03;;;;;;;25.33;25.91;97962.84;8315246;28;20246;-84
2022/09/02 11:11:22;;;;;;;7.63;1.50;;;;;;;25.05;25.58;97980.78;8314165;28;20243;-85
2022/09/02 11:15:40;;;;;;;2.23;1.00;;;;;;;25.47;24.63;97965.88;8315105;28;20234;-81
2022/09/02 11:19:46;;;;;;;1.90;1.10;;;;;;;25.77;25.72;97955.66;8314903;28;20255;-84
2022/09/02 11:23:52;;;;;;;2.53;1.30;;;;;;;24.37;25.97;97955.94;8313989;28;20543;-85
2022/09/02 11:28:02;;;;;;;1.97;1.10;;;;;;;25.41;24.90;97959.41;8314147;28;20235;-81
2022/09/02 11:32:13;;;;;;;4.40;1.10;;;;;;;24.65;26.01;97952.31;8314252;28;20241;-85
2022/09/02 11:36:17;;;;;;;1.67;1.30;;;;;;;23.90;27.27;97945.66;8314406;28;20417;-85
2022/09/02 11:40:25;;;;;;;4.20;1.10;;;;;;;25.13;26.52;97948.19;8314370;28;20233;-83
2022/09/02 11:44:57;;;;;;;2.43;1.10;;;;;;;25.82;25.94;97951.50;8314217;28;20250;-84
2022/09/02 11:49:16;;;;;;;2.40;1.00;;;;;;;27.04;26.36;97944.34;8314506;28;20236;-83
2022/09/02 11:53:23;;;;;;;3.30;1.30;;;;;;;27.71;25.08;97934.97;8314296;28;20573;-84
2022/09/02 11:57:26;;;;;;;3.10;1.10;;;;;;;26.14;26.31;97936.59;8313804;28;20236;-81
2022/09/02 12:01:31;;;;;;;8.67;1.53;;;;;;;25.37;27.39;97931.56;8313919;28;20266;-78
2022/09/02 12:05:51;;;;;;;1.80;1.20;;;;;;;26.01;26.79;97923.84;8313760;28;20286;-80
2022/09/02 12:09:55;;;;;;;3.77;0.80;;;;;;;26.59;25.99;97924.56;8313452;28;20417;-78
2022/09/02 12:13:59;;;;;;;3.03;1.30;;;;;;;24.88;27.13;97915.50;8313674;28;20235;-79
2022/09/02 12:18:27;;;;;;;3.43;1.30;;;;;;;24.30;29.15;97917.84;8313669;28;20248;-79
2022/09/02 12:22:39;;;;;;;2.87;1.00;;;;;;;25.34;28.34;97910.66;8316584;28;20424;-79
2022/09/02 12:27:18;;;;;;;1.30;1.00;;;;;;;25.87;27.71;97906.72;8319590;28;20235;-77
2022/09/02 12:31:40;;;;;;;1.83;1.10;;;;;;;26.85;26.09;97905.72;8319349;28;20229;-78
2022/09/02 12:35:51;;;;;;;2.67;1.10;;;;;;;26.76;25.16;97897.97;8319328;28;20242;-77
2022/09/02 12:39:57;;;;;;;5.97;1.60;;;;;;;27.48;26.13;97892.44;8318505;28;20405;-78
2022/09/02 12:44:14;;;;;;;6.87;1.10;;;;;;;27.36;23.88;97891.19;8318934;28;20422;-77
2022/09/02 12:48:19;;;;;;;2.87;1.00;;;;;;;25.09;26.42;97884.13;8319202;28;20297;-78
2022/09/02 12:52:44;;;;;;;1.47;0.93;;;;;;;25.44;25.54;97890.16;8318759;28;20292;-78
2022/09/02 12:56:50;;;;;;;1.10;1.00;;;;;;;25.97;25.65;97874.78;8318320;28;20241;-84
2022/09/02 13:01:02;;;;;;;1.83;1.00;;;;;;;26.38;25.64;97882.63;8318067;28;20241;-78
2022/09/02 13:05:16;;;;;;;2.70;1.30;;;;;;;26.52;24.51;97883.75;8318254;28;20539;-78
2022/09/02 13:09:41;;;;;;;2.60;0.93;;;;;;;27.36;24.90;97875.22;8318380;28;20334;-78
2022/09/02 13:14:07;;;;;;;1.47;0.97;;;;;;;27.81;23.42;97873.53;8318190;28;20241;-78
2022/09/02 13:18:32;;;;;;;1.20;0.77;;;;;;;26.19;24.61;97873.22;8317758;28;20502;-78
2022/09/02 13:22:49;;;;;;;1.93;0.80;;;;;;;25.49;24.93;97869.31;8317722;28;20234;-78
2022/09/02 13:27:12;;;;;;;2.13;1.00;;;;;;;26.81;24.23;97867.22;8317272;28;20237;-76
2022/09/02 13:31:24;;;;;;;3.13;1.10;;;;;;;26.13;25.16;97856.16;8317672;28;20225;-78
2022/09/02 13:35:28;;;;;;;1.40;0.80;;;;;;;26.12;25.25;97851.00;8316709;28;20293;-78
2022/09/02 13:39:31;;;;;;;2.00;0.70;;;;;;;26.94;25.13;97821.50;8317295;28;20228;-77
2022/09/02 13:43:34;;;;;;;4.13;0.70;;;;;;;25.42;26.03;97852.38;8317047;28;20233;-77
2022/09/02 13:47:41;;;;;;;0.87;0.70;;;;;;;25.09;26.96;97833.78;8317252;28;20228;-78
2022/09/02 13:51:46;;;;;;;4.87;1.20;;;;;;;24.53;26.61;97837.94;8317119;28;20514;-77
2022/09/02 13:55:51;;;;;;;2.43;1.10;;;;;;;26.10;26.54;97839.75;8305105;28;20391;-78
2022/09/02 13:59:55;;;;;;;3.27;1.13;;;;;;;26.31;24.28;97825.91;8316539;28;20225;-78
2022/09/02 14:04:00;;;;;;;2.00;1.00;;;;;;;25.99;24.93;97827.69;8316907;28;20548;-79
2022/09/02 14:08:05;;;;;;;3.53;0.97;;;;;;;25.72;24.60;97819.06;8317132;28;20233;-78
2022/09/02 14:12:09;;;;;;;2.77;0.90;;;;;;;25.43;25.21;97816.09;8316519;28;20247;-78
2022/09/02 14:16:25;;;;;;;1.63;0.80;;;;;;;26.01;24.96;97808.91;8316395;28;20233;-79
2022/09/02 14:20:30;;;;;;;3.50;0.90;;;;;;;25.91;24.98;97806.44;8316246;28;20547;-78
2022/09/02 14:24:37;;;;;;;1.33;0.80;;;;;;;26.03;24.96;97801.66;8316306;28;20243;-80
2022/09/02 14:28:40;;;;;;;2.67;0.87;;;;;;;26.76;25.07;97802.34;8316518;28;20235;-76
2022/09/02 14:32:43;;;;;;;2.47;1.00;;;;;;;26.83;23.76;97790.84;8316266;28;20232;-81
2022/09/02 14:36:47;;;;;;;4.23;1.30;;;;;;;26.36;25.29;97791.72;8316291;28;20419;-77
2022/09/02 14:40:59;;;;;;;1.43;0.90;;;;;;;26.49;24.45;97797.31;8315287;28;20228;-79
2022/09/02 14:45:04;;;;;;;4.07;0.90;;;;;;;25.87;24.80;97791.84;8315103;28;20248;-78
2022/09/02 14:49:09;;;;;;;1.83;0.80;;;;;;;25.84;24.72;97787.72;8315520;28;20252;-78
2022/09/02 14:53:20;;;;;;;1.50;0.90;;;;;;;26.12;25.10;97785.53;8315287;28;20227;-79
2022/09/02 14:57:26;;;;;;;3.30;1.00;;;;;;;25.81;24.88;97784.56;8315624;28;20306;-78
2022/09/02 15:01:29;;;;;;;1.73;0.97;;;;;;;26.09;25.26;97791.16;8315441;28;20235;-78
2022/09/02 15:05:33;;;;;;;3.57;1.00;;;;;;;25.77;25.02;97784.09;8315038;28;20383;-78
2022/09/02 15:09:37;;;;;;;4.73;0.90;;;;;;;25.42;25.46;97783.47;8315117;28;20241;-79
2022/09/02 15:13:40;;;;;;;3.40;1.00;;;;;;;25.73;25.67;97780.13;8315174;28;20229;-79
2022/09/02 15:17:43;;;;;;;1.73;1.00;;;;;;;25.63;25.52;97775.00;8315058;28;20241;-79
2022/09/02 15:21:45;;;;;;;4.40;1.20;;;;;;;25.15;25.60;97769.53;8315389;28;20259;-78
2022/09/02 15:25:50;;;;;;;1.73;0.90;;;;;;;24.96;26.54;97761.91;8314555;28;20512;-77
2022/09/02 15:29:52;;;;;;;3.30;1.00;;;;;;;24.61;27.07;97770.94;8315239;28;20229;-79
2022/09/02 15:33:55;;;;;;;2.07;0.80;;;;;;;24.58;26.57;97756.22;8314530;28;20235;-79
2022/09/02 15:37:58;;;;;;;2.43;1.00;;;;;;;24.61;26.84;97761.16;8314762;28;20246;-78
2022/09/02 15:42:03;;;;;;;1.70;0.90;;;;;;;24.66;26.49;97753.59;8314975;28;20240;-80
2022/09/02 15:46:17;;;;;;;1.33;0.90;;;;;;;24.70;26.33;97749.63;8314936;28;20532;-79
2022/09/02 15:50:20;;;;;;;1.37;1.00;;;;;;;24.90;26.36;97746.66;8314560;28;20301;-79
2022/09/02 15:54:24;;;;;;;3.80;1.00;;;;;;;24.71;26.78;97739.84;8314525;28;20300;-80
2022/09/02 15:58:28;;;;;;;4.93;1.13;;;;;;;24.47;27.01;97746.72;8319217;28;20240;-80
2022/09/02 16:02:31;;;;;;;6.17;1.30;;;;;;;24.09;27.50;97742.78;8320886;28;20244;-79
2022/09/02 16:06:38;;;;;;;1.50;1.00;;;;;;;24.30;27.93;97729.97;8320713;28;20246;-80
2022/09/02 16:10:42;;;;;;;4.97;0.80;;;;;;;24.26;27.52;97743.69;8320789;28;20228;-81
2022/09/02 16:14:49;;;;;;;4.23;1.20;;;;;;;24.07;27.70;97735.00;8320674;28;20242;-80
2022/09/02 16:18:54;;;;;;;2.97;0.97;;;;;;;23.75;27.80;97731.19;8320199;28;20229;-81
2022/09/02 16:22:56;;;;;;;4.30;0.80;;;;;;;23.74;27.80;97733.97;8320503;28;20228;-80
2022/09/02 16:26:59;;;;;;;2.50;0.87;;;;;;;23.87;27.58;97717.72;8320162;28;20249;-81
2022/09/02 16:31:04;;;;;;;2.60;0.70;;;;;;;23.85;27.77;97722.34;8321070;28;20296;-78
2022/09/02 16:35:09;;;;;;;3.17;1.10;;;;;;;23.84;27.50;97726.81;8322340;28;20360;-78
2022/09/02 16:39:12;;;;;;;5.20;1.00;;;;;;;23.53;28.24;97716.72;8320713;28;20228;-78
2022/09/02 16:43:15;;;;;;;2.30;0.83;;;;;;;23.23;28.19;97721.44;8320795;28;20235;-79
2022/09/02 16:47:19;;;;;;;3.73;0.97;;;;;;;23.20;28.85;97710.38;8321325;28;20237;-79
2022/09/02 16:51:23;;;;;;;5.50;1.10;;;;;;;23.26;28.53;97716.84;8320316;28;20225;-80
2022/09/02 16:55:26;;;;;;;4.27;0.90;;;;;;;23.24;28.02;97714.34;8320232;28;20232;-78
2022/09/02 16:59:30;;;;;;;1.47;0.80;;;;;;;22.95;28.59;97707.50;8320998;28;20235;-78
2022/09/02 17:03:34;;;;;;;1.87;0.97;;;;;;;22.87;28.44;97715.38;8321494;28;20251;-78
2022/09/02 17:07:37;;;;;;;3.47;0.80;;;;;;;22.72;28.48;97706.31;8320922;28;20228;-79
2022/09/02 17:11:41;;;;;;;3.43;0.90;;;;;;;22.82;28.72;97712.34;8322114;28;20231;-78
2022/09/02 17:15:44;;;;;;;4.50;0.90;;;;;;;22.68;28.15;97713.72;8323696;28;20231;-80
2022/09/02 17:19:48;;;;;;;2.70;1.00;;;;;;;22.60;28.46;97718.91;8322271;28;20237;-76
2022/09/02 17:23:52;;;;;;;1.70;0.90;;;;;;;22.64;28.38;97720.28;8321901;28;20230;-78
2022/09/02 17:27:55;;;;;;;5.27;1.00;;;;;;;22.51;28.30;97715.34;8320540;28;20228;-80
2022/09/02 17:31:58;;;;;;;1.33;0.90;;;;;;;22.57;28.57;97716.56;8317458;28;20228;-78
2022/09/02 17:36:04;;;;;;;3.80;0.87;;;;;;;22.45;28.49;97719.41;8317527;28;20237;-78
2022/09/02 17:41:53;;;;;;;5.77;1.17;;;;;;;22.44;28.93;97714.28;8317164;28;20259;-78
2022/09/02 17:44:36;;;;;;;1.83;0.93;;;;;;;22.51;28.77;97720.63;8317300;28;20224;-79
2022/09/02 17:48:39;;;;;;;1.97;1.00;;;;;;;22.48;29.29;97728.00;8316999;28;20279;-79
2022/09/02 17:53:03;;;;;;;2.43;0.80;;;;;;;22.38;29.50;97726.25;8316634;28;20403;-83
2022/09/02 17:57:27;;;;;;;2.00;0.80;;;;;;;22.41;29.54;97727.78;8316358;28;20427;-79
2022/09/02 18:01:31;;;;;;;4.10;0.90;;;;;;;22.14;29.93;97733.84;8316587;28;20531;-80
2022/09/02 18:05:42;;;;;;;2.47;1.30;;;;;;;22.11;30.17;97736.81;8316876;28;20264;-80
2022/09/02 18:09:47;;;;;;;1.93;0.80;;;;;;;22.33;30.03;97740.88;8316432;28;20256;-78
2022/09/02 18:13:59;;;;;;;1.20;0.90;;;;;;;22.29;30.43;97752.69;8315854;28;20233;-80
2022/09/02 18:18:02;;;;;;;3.77;1.20;;;;;;;22.00;30.28;97751.81;8315623;28;20244;-80
2022/09/02 18:22:16;;;;;;;3.40;1.20;;;;;;;21.98;30.79;97752.94;8316105;28;20421;-82
2022/09/02 18:26:29;;;;;;;4.80;1.40;;;;;;;22.11;30.89;97756.09;8315748;28;20240;-81
2022/09/02 18:30:38;;;;;;;1.87;1.00;;;;;;;22.04;31.01;97753.19;8315637;28;20232;-79
2022/09/02 18:34:47;;;;;;;3.27;0.90;;;;;;;21.95;31.05;97754.09;8315827;28;20227;-77
2022/09/02 18:39:01;;;;;;;3.20;1.20;;;;;;;22.01;31.14;97753.50;8315761;28;20419;-78
2022/09/02 18:43:12;;;;;;;2.87;1.30;;;;;;;21.91;31.24;97755.31;8315962;28;20239;-80
2022/09/02 18:47:19;;;;;;;2.73;1.10;;;;;;;21.84;31.43;97756.91;8315615;28;20227;-80
2022/09/02 18:51:26;;;;;;;4.40;1.40;;;;;;;21.93;31.75;97763.09;8315575;28;20225;-78
2022/09/02 18:55:34;;;;;;;2.43;1.17;;;;;;;21.99;31.83;97767.78;8315442;28;20225;-80
2022/09/02 18:59:43;;;;;;;3.53;1.20;;;;;;;22.03;32.00;97769.19;8315130;28;20244;-79
2022/09/02 19:03:46;;;;;;;2.60;1.03;;;;;;;21.97;32.76;97772.38;8314826;28;20526;-79
2022/09/02 19:12:11;;;;;;;5.53;1.40;;;;;;;21.88;32.97;97766.19;8314737;28;20239;-81
2022/09/02 19:16:18;;;;;;;4.43;1.40;;;;;;;21.71;32.94;97777.47;8314738;28;20395;-81
2022/09/02 19:20:22;;;;;;;3.87;1.60;;;;;;;21.66;32.88;97770.78;8314459;28;20236;-77
2022/09/02 19:24:27;;;;;;;3.33;1.40;;;;;;;21.63;33.28;97763.19;8314661;28;20224;-80
2022/09/02 19:28:30;;;;;;;4.03;1.50;;;;;;;21.58;33.56;97769.88;8314221;28;20235;-80